Flight Track Log - Related Links

Times and Time Zones

All times are in EDT time to prevent confusion due to time zone crossing. See the UAL624 flight status page for this flight to view local times or setup timezone preferences in your user account.

Time Position Orientation Groundspeed Altitude Reporting Facility
EDT Latitude Longitude Course Direction KTS MPH feet Rate Location/Type
Mon 11:26:00 PM 42.0167 -87.9167 90° East 167 192 1,900  Level Chicago TRACON
Mon 11:27:00 PM 42.0500 -87.8833 37° Northeast 193 222 3,600 1,526 Climbing Chicago TRACON
Mon 11:27:54 PM 42.1000 -87.8333 37° Northeast 271 312 4,800 2,685 Climbing Chicago TRACON
Mon 11:29:00 PM 41.9416 -87.2567 96° East  Level FlightAware Approximate
Mon 11:29:23 PM 42.1567 -87.6933 61° Northeast 295 339 10,000  Level Chicago Center
Mon 11:30:00 PM 41.9333 -87.0935 90° East  Level FlightAware Approximate
Mon 11:30:24 PM 42.1242 -87.5867 112° Southeast 306 352 12,900  Level Chicago Center
Mon 11:31:00 PM 41.9334 -86.9297 90° East  Level FlightAware Approximate
Mon 11:31:25 PM 42.0825 -87.4658 115° Southeast 326 375 15,800  Level Chicago Center
Mon 11:32:27 PM 42.0450 -87.3542 114° Southeast 338 389 18,200 2,244 Climbing Chicago Center
Mon 11:33:28 PM 41.9997 -87.2258 115° Southeast 345 397 20,400 1,623 Climbing Chicago Center
Mon 11:34:29 PM 41.9553 -87.0936 114° Southeast 385 443 21,500 1,377 Climbing Chicago Center
Mon 11:35:30 PM 41.9456 -86.9400 95° East 416 479 23,200 1,672 Climbing Chicago Center
Mon 11:36:31 PM 41.9492 -86.7822 88° East 423 487 24,900 1,672 Climbing Chicago Center
Mon 11:37:32 PM 41.9506 -86.6392 89° East 423 487 26,600 1,475 Climbing Chicago Center
Mon 11:38:33 PM 41.9522 -86.4778 89° East 429 494 27,900 1,180 Climbing Chicago Center
Mon 11:39:34 PM 41.9547 -86.3122 89° East 441 507 29,000 1,082 Climbing Chicago Center
Mon 11:40:35 PM 41.9414 -86.1422 96° East 459 528 30,100 1,377 Climbing Chicago Center
Mon 11:41:36 PM 41.9017 -85.9411 105° East 464 534 31,800 1,623 Climbing Chicago Center
Mon 11:42:37 PM 41.8686 -85.7744 105° East 464 534 33,400 1,377 Climbing Chicago Center
Mon 11:43:38 PM 41.8361 -85.6083 105° East 460 529 34,600 1,180 Climbing Chicago Center
Mon 11:44:39 PM 41.8056 -85.4397 104° East 461 531 35,800 984 Climbing Chicago Center
Mon 11:45:40 PM 41.7700 -85.2664 105° East 477 549 36,600 738 Climbing Chicago Center
Mon 11:46:41 PM 41.7339 -85.0961 106° East 462 532 37,300 738 Climbing Chicago Center
Mon 11:47:42 PM 41.6978 -84.9267 106° East 478 550 38,100 757 Climbing Chicago Center
Mon 11:48:32 PM 41.6700 -84.7925 105° East 469 540 38,700 486 Climbing Cleveland Center
Mon 11:49:33 PM 41.6556 -84.6169 96° East 474 545 39,000 149 Climbing Cleveland Center
Mon 11:50:33 PM 41.6022 -84.4550 114° Southeast 478 550 39,000  Level Cleveland Center
Mon 11:51:34 PM 41.5333 -84.3036 121° Southeast 476 548 39,000  Level Cleveland Center
Mon 11:52:35 PM 41.4681 -84.1639 122° Southeast 476 548 39,000 -49 Level Cleveland Center
Mon 11:53:36 PM 41.3975 -84.0142 122° Southeast 476 548 38,900  Descending Cleveland Center
Mon 11:54:36 PM 41.3136 -83.8353 122° Southeast 477 549 39,000 50 Climbing Cleveland Center
Mon 11:55:37 PM 41.2428 -83.6858 122° Southeast 478 550 39,000  Level Cleveland Center
Mon 11:56:38 PM 41.1722 -83.5356 122° Southeast 479 551 39,000  Level Cleveland Center
Mon 11:57:38 PM 41.1000 -83.3861 123° Southeast 481 554 39,000  Level Cleveland Center
Mon 11:58:39 PM 41.0264 -83.2308 122° Southeast 481 554 39,000  Level Cleveland Center
Mon 11:59:15 PM 40.9831 -83.1400 122° Southeast 483 556 39,000  Level Cleveland Center
Tue 12:00:16 AM 40.9103 -82.9894 123° Southeast 484 557 39,000  Level Cleveland Center
Tue 12:01:17 AM 40.8364 -82.8392 123° Southeast 485 558 39,000  Level Cleveland Center
Tue 12:02:17 AM 40.7644 -82.6903 123° Southeast 484 557 39,000 -50 Level Cleveland Center
Tue 12:03:18 AM 40.6917 -82.5422 123° Southeast 483 556 38,900  Descending Cleveland Center
Tue 12:04:19 AM 40.6175 -82.3939 123° Southeast 483 556 39,000 50 Climbing Cleveland Center
Tue 12:05:19 AM 40.5456 -82.2478 123° Southeast 479 551 39,000  Level Cleveland Center
Tue 12:06:20 AM 40.4731 -82.1006 123° Southeast 478 550 39,000 -50 Level Cleveland Center
Tue 12:07:20 AM 40.3986 -81.9533 124° Southeast 481 554 38,900  Descending Cleveland Center
Tue 12:08:21 AM 40.3250 -81.8081 124° Southeast 480 552 39,000 50 Climbing Cleveland Center
Tue 12:09:21 AM 40.2581 -81.6775 124° Southeast 479 551 39,000 -50 Level Cleveland Center
Tue 12:10:22 AM 40.1850 -81.5336 124° Southeast 479 551 38,900 -50 Descending Cleveland Center
Tue 12:11:22 AM 40.0961 -81.3583 124° Southeast 480 552 38,900 50 Level Cleveland Center
Tue 12:12:23 AM 40.0214 -81.2133 124° Southeast 484 557 39,000 50 Climbing Cleveland Center
Tue 12:13:23 AM 39.9450 -81.0658 124° Southeast 488 562 39,000  Level Cleveland Center
Tue 12:14:24 AM 39.8714 -80.9211 124° Southeast 488 562 39,000 -197 Level Cleveland Center
Tue 12:15:25 AM 39.7969 -80.7778 124° Southeast 486 559 38,600 -645 Descending Cleveland Center
Tue 12:16:25 AM 39.7219 -80.6347 124° Southeast 485 558 37,700 -942 Descending Cleveland Center
Tue 12:17:26 AM 39.6456 -80.4900 124° Southeast 486 559 36,700 -992 Descending Cleveland Center
Tue 12:18:26 AM 39.5711 -80.3464 124° Southeast 486 559 35,700 -992 Descending Cleveland Center
Tue 12:19:27 AM 39.4967 -80.2078 125° Southeast 477 549 34,700 -992 Descending Cleveland Center
Tue 12:20:27 AM 39.4208 -80.0664 125° Southeast 478 550 33,700 -1,041 Descending Cleveland Center
Tue 12:21:28 AM 39.3456 -79.9233 124° Southeast 483 556 32,600 -1,636 Descending Cleveland Center
Tue 12:22:28 AM 39.2950 -79.7619 112° Southeast 487 560 30,400 -1,950 Descending Cleveland Center
Tue 12:23:28 AM 39.2747 -79.5950 99° East 479 551 28,700 -1,636 Descending Cleveland Center
Tue 12:24:29 AM 39.2625 -79.4308 95° East 469 540 27,100 -1,636 Descending Cleveland Center
Tue 12:25:29 AM 39.2481 -79.2600 96° East 457 526 25,400 -1,587 Descending Cleveland Center
Tue 12:26:30 AM 39.2344 -79.1056 96° East 435 501 23,900 -1,488 Descending Cleveland Center
Tue 12:27:30 AM 39.2211 -78.9558 97° East 427 491 22,400 -1,438 Descending Cleveland Center
Tue 12:28:31 AM 39.2067 -78.8114 97° East 413 475 21,000 -1,388 Descending Cleveland Center
Tue 12:29:31 AM 39.1931 -78.6692 97° East 404 465 19,600 -1,388 Descending Cleveland Center
Tue 12:30:32 AM 39.1806 -78.5322 97° East 390 449 18,200 -1,240 Descending Cleveland Center
Tue 12:31:32 AM 39.1667 -78.3989 98° East 381 438 17,100 -1,190 Descending Cleveland Center
Tue 12:32:33 AM 39.1403 -78.2717 105° East 372 428 15,800 -1,240 Descending Cleveland Center
Tue 12:33:33 AM 39.1097 -78.1492 108° East 362 417 14,600 -1,370 Descending Cleveland Center
Tue 12:34:05 AM 39.0833 -78.0667 112° Southeast 349 402 13,700 -1,291 Descending Potomac TRACON
Tue 12:34:52 AM 39.0683 -77.9831 103° East 346 398 12,900 -1,121 Descending Washington Center
Tue 12:35:52 AM 39.0392 -77.8658 108° East 346 398 11,700 -1,210 Descending Washington Center
Tue 12:36:51 AM 39.0108 -77.7508 108° East 341 392 10,500 -992 Descending Washington Center
Tue 12:37:53 AM 38.9828 -77.6411 108° East 300 345 9,700 -1,171 Descending Washington Center
Tue 12:38:54 AM 38.9606 -77.5472 107° East 279 321 8,100 -1,550 Descending Washington Center
Tue 12:39:53 AM 38.9667 -77.4500 85° East 274 315 6,600 -1,440 Descending Potomac TRACON
Tue 12:40:59 AM 38.9667 -77.3500 90° East 255 293 5,100 -1,381 Descending Potomac TRACON
Tue 12:41:59 AM 38.9833 -77.2500 78° East 250 288 3,700 -1,100 Descending Potomac TRACON
Tue 12:42:59 AM 38.9667 -77.1667 104° East 228 262 2,900 -850 Descending Potomac TRACON
Tue 12:43:52 AM 38.9478 -77.1333 126° Southeast 222 255 2,100 -842 Descending Washington Center
Tue 12:44:53 AM 38.9072 -77.0925 142° Southeast 193 222 1,300 -787 Descending Washington Center

Login

Don't have an account? Register now (free) for customized features, flight alerts, and more!